Latest Weather Observations for Mount Gellibrand

IDV60801

Issued at 8:02 pm EST Saturday 5 September 2015 (issued every 30 minutes, with the page automatically refreshed every 10 minutes)

About weather observations | Map of weather stations | Latest weather observations for VIC | Other Formats
Station Details ID: 090035 Name: MOUNT GELLIBRAND Lat: -38.23 Lon: 143.79 Height: 261.0 m
Data from the previous 72 hours. | See also: Recent months at Mount Gellibrand
Date/Time
EST
Temp
°C
App
Temp
°C
Dew
Point
Rel
Hum
%
Delta-T
°C
Wind Press
QNH
hPa
Press
MSL
hPa
Rain
since 9 am
mm
Dir
 
Spd
km/h
Gust
km/h
Spd
kts
Gust
kts
05/08:00pm 7.1 2.7 6.4 95 0.3 E 19 20 10 11 1022.8 1023.0 0.0
05/07:30pm 7.3 2.8 6.2 93 0.5 ESE 19 20 10 11 1022.8 1023.0 0.0
05/07:00pm 7.6 3.5 6.2 91 0.6 ESE 17 20 9 11 1022.7 1022.9 0.0
05/06:30pm 8.1 4.8 6.6 90 0.7 ESE 13 17 7 9 1022.4 1022.6 0.0
05/06:00pm 8.8 4.8 6.8 87 0.9 E 17 20 9 11 1021.9 1022.1 0.0
05/05:30pm 9.7 5.8 7.3 85 1.2 E 17 20 9 11 1022.0 1022.2 0.0
05/05:00pm 10.2 6.0 7.4 83 1.3 E 19 24 10 13 1021.9 1022.1 0.0
05/04:30pm 11.5 9.5 6.2 70 2.5 NE 6 9 3 5 1021.9 1022.1 0.0
05/04:00pm 11.5 9.3 6.4 71 2.4 N 7 11 4 6 1022.0 1022.2 0.0
05/03:30pm 11.5 9.5 6.4 71 2.4 NNW 6 7 3 4 1022.2 1022.4 0.0
05/03:00pm 11.5 9.4 6.8 73 2.3 NNE 7 9 4 5 1022.5 1022.7 0.0
05/02:30pm 11.2 10.0 6.5 73 2.2 NE 2 4 1 2 1022.8 1023.0 0.0
05/02:00pm 10.9 8.9 7.0 77 1.9 NNE 7 11 4 6 1022.7 1022.9 0.0
05/01:30pm 11.2 9.2 7.1 76 2.0 NE 7 11 4 6 1023.0 1023.2 0.0
05/01:00pm 11.4 10.3 8.4 82 1.5 SSE 4 7 2 4 1023.3 1023.5 0.0
05/12:30pm 11.0 10.2 9.8 92 0.6 WSW 4 7 2 4 1024.0 1024.2 0.0
05/12:00pm 10.4 9.3 9.8 96 0.3 WSW 6 7 3 4 1024.2 1024.4 0.0
05/11:30am 10.2 8.9 9.9 98 0.2 W 7 9 4 5 1024.4 1024.6 0.0
05/11:00am 9.8 8.4 9.7 99 0.1 WNW 7 11 4 6 1024.7 1024.9 0.0
05/10:30am 9.1 7.2 9.1 100 0.0 W 9 17 5 9 1024.7 1024.9 0.0
05/10:00am 8.5 6.5 8.5 100 0.0 W 9 11 5 6 1025.2 1025.4 0.0
05/09:30am 8.1 6.5 8.1 100 0.0 W 6 9 3 5 1025.3 1025.5 0.0
05/09:00am 7.7 5.8 7.7 100 0.0 WSW 7 9 4 5 1025.3 1025.5 0.2
05/08:30am 7.5 6.2 7.5 100 0.0 WSW 4 7 2 4 1025.1 1025.3 0.2
05/08:00am 7.4 5.1 7.4 100 0.0 W 9 13 5 7 1025.0 1025.2 0.2
05/07:30am 7.2 4.5 7.2 100 0.0 W 11 13 6 7 1024.8 1025.0 0.2
05/07:00am 7.0 4.2 7.0 100 0.0 W 11 13 6 7 1024.5 1024.7 0.0
05/06:30am 7.0 4.2 7.0 100 0.0 W 11 15 6 8 1024.2 1024.4 0.0
05/06:00am 6.9 4.1 6.9 100 0.0 WNW 11 15 6 8 1024.0 1024.2 0.0
05/05:30am 6.9 4.5 6.9 100 0.0 WNW 9 11 5 6 1023.7 1024.0 0.0
05/05:00am 6.8 4.7 6.8 100 0.0 NW 7 9 4 5 1023.4 1023.6 0.0
05/04:30am 6.8 4.4 6.8 100 0.0 WNW 9 9 5 5 1023.3 1023.5 0.0
05/04:00am 6.9 4.5 6.8 99 0.0 WNW 9 13 5 7 1023.1 1023.3 0.0
05/03:30am 6.8 3.9 6.7 99 0.0 WNW 11 13 6 7 1023.2 1023.4 0.0
05/03:00am 6.8 4.3 6.7 99 0.0 WNW 9 11 5 6 1023.2 1023.4 0.0
05/02:30am 7.0 4.6 6.9 99 0.0 W 9 11 5 6 1023.6 1023.9 0.0
05/02:00am 7.0 4.2 6.9 99 0.0 W 11 11 6 6 1023.9 1024.1 0.0
05/01:30am 7.0 3.8 6.9 99 0.0 W 13 17 7 9 1024.1 1024.3 0.0
05/01:00am 6.7 3.4 6.4 98 0.1 W 13 15 7 8 1024.2 1024.4 0.0
05/12:30am 6.8 3.1 6.5 98 0.1 W 15 15 8 8 1024.4 1024.6 0.0
05/12:00am 6.8 3.5 6.5 98 0.1 W 13 15 7 8 1024.7 1024.9 0.0
 
Date/Time
EST
Temp
°C
App
Temp
°C
Dew
Point
Rel
Hum
%
Delta-T
°C
Wind Press
QNH
hPa
Press
MSL
hPa
Rain
since 9 am
mm
Dir
 
Spd
km/h
Gust
km/h
Spd
kts
Gust
kts
04/11:30pm 6.9 2.9 6.6 98 0.1 W 17 20 9 11 1024.9 1025.1 0.0
04/11:00pm 6.9 3.2 6.5 97 0.2 W 15 17 8 9 1025.1 1025.3 0.0
04/10:30pm 6.9 3.6 6.3 96 0.3 W 13 17 7 9 1025.3 1025.5 0.0
04/10:00pm 6.9 3.2 6.3 96 0.3 W 15 19 8 10 1025.4 1025.6 0.0
04/09:30pm 7.1 3.0 6.0 93 0.5 WSW 17 20 9 11 1025.3 1025.5 0.0
04/09:00pm 6.9 2.9 5.1 88 0.8 W 15 19 8 10 1025.2 1025.4 0.0
04/08:30pm 8.0 4.5 5.3 83 1.2 SW 13 17 7 9 1025.1 1025.3 0.0
04/08:00pm 8.1 3.7 4.7 79 1.5 WSW 17 24 9 13 1024.9 1025.1 0.0
04/07:30pm 8.3 4.9 4.1 75 1.9 WSW 11 13 6 7 1024.9 1025.1 0.0
04/07:00pm 8.3 3.5 4.5 77 1.7 SW 19 24 10 13 1025.0 1025.2 0.0
04/06:30pm 8.5 3.4 4.3 75 1.9 SSW 20 24 11 13 1024.8 1025.0 0.0
04/06:00pm 8.6 3.5 4.2 74 1.9 SW 20 30 11 16 1024.4 1024.6 0.0
04/05:30pm 9.0 4.2 4.8 75 1.9 SW 19 22 10 12 1024.3 1024.5 0.0
04/05:00pm 9.3 3.6 5.1 75 1.9 SW 24 30 13 16 1024.2 1024.4 0.0
04/04:30pm 9.7 4.9 4.7 71 2.3 SW 19 24 10 13 1023.9 1024.1 0.0
04/04:00pm 9.9 4.9 4.7 70 2.4 SW 20 24 11 13 1023.9 1024.1 0.0
04/03:30pm 9.9 3.4 4.7 70 2.4 WSW 28 33 15 18 1023.7 1024.0 0.0
04/03:00pm 10.0 3.4 4.4 68 2.5 WSW 28 32 15 17 1023.7 1024.0 0.0
04/02:30pm 9.9 3.0 4.5 69 2.4 WSW 30 35 16 19 1023.7 1024.0 0.0
04/02:00pm 10.2 4.9 5.0 70 2.4 SW 22 30 12 16 1023.9 1024.1 0.0
04/01:30pm 9.8 4.8 4.8 71 2.3 WSW 20 26 11 14 1024.2 1024.4 0.0
04/01:00pm 9.9 4.1 4.3 68 2.5 WSW 24 32 13 17 1024.4 1024.6 0.0
04/12:30pm 9.5 4.2 4.9 73 2.1 WSW 22 26 12 14 1025.0 1025.2 0.0
04/12:00pm 9.5 4.4 4.1 69 2.4 WSW 20 28 11 15 1025.3 1025.5 0.0
04/11:30am 9.6 4.7 4.0 68 2.5 WSW 19 24 10 13 1025.5 1025.7 0.0
04/11:00am 9.6 4.6 3.8 67 2.6 SW 19 30 10 16 1025.7 1025.9 0.0
04/10:30am 8.8 4.7 4.2 73 2.0 WSW 15 20 8 11 1025.9 1026.1 0.0
04/10:00am 8.5 5.2 4.3 75 1.9 WSW 11 15 6 8 1025.9 1026.1 0.0
04/09:30am 7.8 4.5 4.4 79 1.5 WSW 11 13 6 7 1025.8 1026.0 0.0
04/09:00am 7.9 4.9 4.3 78 1.6 WSW 9 15 5 8 1025.7 1025.9 0.2
04/08:30am 6.8 3.4 3.8 81 1.3 WSW 11 13 6 7 1025.6 1025.8 0.2
04/08:00am 6.6 2.6 2.9 77 1.6 SW 13 19 7 10 1025.4 1025.6 0.2
04/07:30am 6.3 2.3 2.8 78 1.5 SW 13 15 7 8 1025.1 1025.3 0.2
04/07:00am 5.8 1.9 3.3 84 1.1 SW 13 15 7 8 1024.8 1025.0 0.2
04/06:30am 6.3 2.2 2.0 74 1.8 SW 13 15 7 8 1024.6 1024.8 0.2
04/06:00am 6.3 2.1 1.4 71 2.0 SSW 13 15 7 8 1024.4 1024.6 0.2
04/05:30am 5.7 0.4 1.8 76 1.6 SSW 19 20 10 11 1024.3 1024.5 0.2
04/05:00am 6.2 1.5 3.2 81 1.3 SSW 17 19 9 10 1024.1 1024.3 0.2
04/04:30am 5.7 1.0 3.2 84 1.1 SSW 17 20 9 11 1023.9 1024.1 0.2
04/04:00am 6.4 1.7 3.4 81 1.3 SW 17 20 9 11 1023.6 1023.9 0.2
04/03:30am 5.6 1.3 3.1 84 1.1 SW 15 17 8 9 1023.6 1023.9 0.2
04/03:00am 6.0 1.0 3.5 84 1.1 SW 19 20 10 11 1023.6 1023.9 0.2
04/02:30am 5.7 1.1 3.7 87 0.9 SW 17 19 9 10 1023.7 1024.0 0.0
04/02:00am 6.1 1.9 3.9 86 0.9 WSW 15 17 8 9 1024.0 1024.2 0.0
04/01:30am 6.1 1.5 3.9 86 0.9 WSW 17 19 9 10 1024.0 1024.2 0.0
04/01:00am 5.8 1.6 3.8 87 0.9 SW 15 17 8 9 1023.7 1024.0 0.0
04/12:30am 5.8 1.5 3.0 82 1.2 SW 15 20 8 11 1023.7 1024.0 0.0
04/12:00am 5.9 1.7 3.9 87 0.9 SW 15 17 8 9 1023.7 1024.0 0.0
 
Date/Time
EST
Temp
°C
App
Temp
°C
Dew
Point
Rel
Hum
%
Delta-T
°C
Wind Press
QNH
hPa
Press
MSL
hPa
Rain
since 9 am
mm
Dir
 
Spd
km/h
Gust
km/h
Spd
kts
Gust
kts
03/11:30pm 5.9 1.8 4.1 88 0.8 SW 15 17 8 9 1023.7 1024.0 0.0
03/11:00pm 6.0 1.8 3.8 86 0.9 SW 15 17 8 9 1023.6 1023.9 0.0
03/10:30pm 5.6 1.3 3.1 84 1.1 SW 15 19 8 10 1023.3 1023.5 0.0
03/10:00pm 6.2 1.1 3.0 80 1.3 SW 19 20 10 11 1023.1 1023.3 0.0
03/09:30pm 6.3 1.2 3.3 81 1.3 SW 19 22 10 12 1022.9 1023.1 0.0
03/09:00pm 6.2 1.1 3.2 81 1.3 SW 19 20 10 11 1023.0 1023.2 0.0
03/08:30pm 6.8 2.6 3.6 80 1.4 SW 15 19 8 10 1022.7 1022.9 0.0
03/08:00pm 7.1 2.5 3.5 78 1.5 SSW 17 24 9 13 1022.5 1022.7 0.0
03/07:30pm 7.7 2.8 3.9 77 1.7 SSW 19 24 10 13 1022.1 1022.3 0.0
03/07:00pm 8.1 2.7 4.3 77 1.7 SSW 22 26 12 14 1021.6 1021.8 0.0
03/06:30pm 7.8 1.5 3.7 75 1.8 SSW 26 30 14 16 1021.0 1021.2 0.0
03/06:00pm 7.9 1.4 4.5 79 1.5 SSW 28 33 15 18 1020.3 1020.4 0.0
03/05:30pm 8.9 2.0 4.7 75 1.9 SSW 30 37 16 20 1019.7 1019.9 0.0
03/05:00pm 9.4 3.5 5.9 79 1.6 S 26 30 14 16 1019.3 1019.5 0.0
03/04:30pm 10.0 2.8 6.0 76 1.9 SSW 33 41 18 22 1018.8 1019.0 0.0
03/04:00pm 11.2 5.0 6.3 72 2.3 S 28 37 15 20 1018.4 1018.6 0.0
03/03:30pm 10.6 3.7 7.1 79 1.7 S 33 39 18 21 1018.1 1018.3 0.0
03/03:00pm 10.9 4.7 6.3 73 2.2 S 28 33 15 18 1017.7 1017.9 0.0
03/02:30pm 11.1 5.7 8.1 82 1.5 S 26 32 14 17 1017.3 1017.5 0.0
03/02:00pm 11.8 7.1 9.4 85 1.2 S 24 30 13 16 1017.0 1017.1 0.0
03/01:30pm 11.3 7.4 9.6 89 0.9 S 20 28 11 15 1016.9 1017.0 0.0
03/01:00pm 10.9 7.5 9.0 88 1.0 SSE 17 24 9 13 1016.9 1017.0 0.0
03/12:30pm 11.3 6.0 8.5 83 1.4 SSE 26 33 14 18 1016.7 1016.8 0.0
03/12:00pm 12.0 7.2 9.0 82 1.5 S 24 32 13 17 1016.5 1016.6 0.0
03/11:30am 11.5 7.6 9.6 88 1.0 S 20 26 11 14 1016.1 1016.2 0.0
03/11:00am 10.6 6.4 9.7 94 0.5 SSW 22 28 12 15 1015.6 1015.8 0.0
03/10:30am 10.3 4.4 9.1 92 0.6 S 30 35 16 19 1015.3 1015.5 0.0
03/10:00am 10.8 5.6 8.9 88 1.0 S 26 32 14 17 1014.8 1015.0 0.0
03/09:30am 10.6 5.7 8.5 87 1.0 SSW 24 33 13 18 1014.5 1014.7 0.0
03/09:00am 10.1 5.8 8.0 87 1.0 SSW 20 26 11 14 1014.0 1014.2 4.4
03/08:30am 9.9 5.6 7.8 87 1.0 SSW 20 24 11 13 1013.4 1013.5 4.4
03/08:00am 9.7 4.6 7.8 88 0.9 S 24 24 13 13 1012.6 1012.7 4.4
03/07:30am 9.4 4.3 7.7 89 0.8 S 24 28 13 15 1012.0 1012.1 4.4
03/07:00am 9.3 3.9 7.9 91 0.7 SSW 26 30 14 16 1011.2 1011.4 4.4
03/06:30am 9.2 5.0 8.3 94 0.4 SSW 20 24 11 13 1010.4 1010.5 4.4
03/06:00am 9.0 4.8 8.1 94 0.4 SSW 20 22 11 12 1010.2 1010.3 4.4
03/05:30am 9.3 5.2 8.7 96 0.3 S 20 22 11 12 1009.7 1009.8 4.4
03/05:00am 9.1 5.0 8.6 97 0.2 S 20 22 11 12 1009.3 1009.4 4.4
03/04:30am 8.8 4.7 8.5 98 0.1 S 20 22 11 12 1008.9 1009.0 4.4
03/04:00am 8.8 4.3 8.5 98 0.1 S 22 26 12 14 1008.7 1008.8 4.4
03/03:30am 8.9 3.6 8.5 97 0.2 S 26 30 14 16 1008.4 1008.5 4.4
03/03:00am 8.9 3.6 8.3 96 0.3 S 26 30 14 16 1008.2 1008.3 4.4
03/02:30am 8.7 4.5 8.1 96 0.3 S 20 24 11 13 1008.3 1008.4 4.4
03/02:00am 9.0 6.1 8.2 95 0.4 SSE 13 17 7 9 1008.2 1008.3 4.4
03/01:30am 9.1 6.6 8.3 95 0.4 SSE 11 13 6 7 1008.2 1008.3 4.4
03/01:00am 9.2 6.4 8.6 96 0.3 ESE 13 15 7 8 1008.0 1008.1 4.4
03/12:30am 9.1 6.3 8.6 97 0.2 SE 13 15 7 8 1007.6 1007.8 4.4
03/12:00am 9.2 5.7 8.9 98 0.1 ESE 17 20 9 11 1007.5 1007.7 4.4
 
Date/Time
EST
Temp
°C
App
Temp
°C
Dew
Point
Rel
Hum
%
Delta-T
°C
Wind Press
QNH
hPa
Press
MSL
hPa
Rain
since 9 am
mm
Dir
 
Spd
km/h
Gust
km/h
Spd
kts
Gust
kts
02/11:30pm 9.1 5.2 8.8 98 0.1 ESE 19 22 10 12 1007.7 1007.9 4.4
02/11:00pm 9.1 5.3 9.0 99 0.0 ESE 19 24 10 13 1007.9 1008.0 4.4
02/10:30pm 9.0 5.5 8.9 99 0.0 SE 17 20 9 11 1008.0 1008.1 4.4
02/10:00pm 9.0 5.2 8.9 99 0.0 ESE 19 22 10 12 1007.9 1008.0 4.4
02/09:30pm 8.9 5.0 8.8 99 0.0 SE 19 22 10 12 1007.9 1008.0 4.4
02/09:00pm 8.9 5.4 8.6 98 0.1 SE 17 20 9 11 1007.9 1008.0 4.4
02/08:30pm 9.1 6.4 8.8 98 0.1 ESE 13 15 7 8 1008.0 1008.1 4.4

Other Formats:

Comma delimited format used in spreadsheet applications
http://www.bom.gov.au/fwo/IDV60801/IDV60801.95845.axf

JavaScript Object Notation format (JSON) in row-major order
http://www.bom.gov.au/fwo/IDV60801/IDV60801.95845.json